createdAt,value
2023-05-10T00:01:44.723Z,10.27
2023-05-10T00:04:11.436Z,10.33
2023-05-10T00:06:38.058Z,10.25
2023-05-10T00:09:04.867Z,10.35
2023-05-10T00:11:31.652Z,10.36
2023-05-10T00:13:58.278Z,10.36
2023-05-10T00:16:24.931Z,10.35
2023-05-10T00:18:51.601Z,10.30
2023-05-10T00:21:18.211Z,10.29
2023-05-10T00:23:47.900Z,10.31
2023-05-10T00:26:14.638Z,10.33
2023-05-10T00:28:41.185Z,10.36
2023-05-10T00:31:07.717Z,10.41
2023-05-10T00:33:34.290Z,10.30
2023-05-10T00:36:00.996Z,10.40
2023-05-10T00:38:27.622Z,10.31
2023-05-10T00:40:54.182Z,10.34
2023-05-10T00:43:20.763Z,10.34
2023-05-10T00:45:47.840Z,10.43
2023-05-10T00:48:14.596Z,10.47
2023-05-10T00:50:41.614Z,10.38
2023-05-10T00:53:08.854Z,10.39
2023-05-10T00:55:35.607Z,10.44
2023-05-10T00:58:02.595Z,10.46
2023-05-10T01:00:30.630Z,10.47
2023-05-10T01:02:57.446Z,10.44
2023-05-10T01:05:24.223Z,10.44
2023-05-10T01:07:50.874Z,10.46
2023-05-10T01:10:17.885Z,10.45
2023-05-10T01:12:46.619Z,10.45
2023-05-10T01:15:13.875Z,10.49
2023-05-10T01:17:41.777Z,10.44
2023-05-10T01:20:09.344Z,10.41
2023-05-10T01:22:54.002Z,10.37
2023-05-10T01:25:35.485Z,10.33
2023-05-10T01:28:11.021Z,10.44
2023-05-10T01:31:05.576Z,10.37
2023-05-10T01:33:48.715Z,10.40
2023-05-10T01:36:32.453Z,10.39
2023-05-10T01:39:11.737Z,10.29
2023-05-10T01:41:45.958Z,10.28
2023-05-10T01:44:19.810Z,10.30
2023-05-10T01:46:51.008Z,10.24
2023-05-10T01:49:28.765Z,10.17
2023-05-10T01:52:03.148Z,10.31
2023-05-10T01:54:30.355Z,10.30
2023-05-10T01:57:00.527Z,10.41
2023-05-10T01:59:31.240Z,10.53
2023-05-10T02:02:00.073Z,10.52
2023-05-10T02:04:27.964Z,10.49
2023-05-10T02:06:55.350Z,10.42
2023-05-10T02:09:22.397Z,10.37
2023-05-10T02:11:49.776Z,10.43
2023-05-10T02:14:16.878Z,10.40
2023-05-10T02:16:44.343Z,10.32
2023-05-10T02:19:11.377Z,10.35
2023-05-10T02:21:39.234Z,10.42
2023-05-10T02:24:06.450Z,10.67
2023-05-10T02:26:34.034Z,10.68
2023-05-10T02:29:04.342Z,10.54
2023-05-10T02:31:33.322Z,10.29
2023-05-10T02:34:01.319Z,10.21
2023-05-10T02:36:31.235Z,10.61
2023-05-10T02:38:58.242Z,10.85
2023-05-10T02:41:25.791Z,10.91
2023-05-10T02:43:57.224Z,10.97
2023-05-10T02:46:24.521Z,10.41
2023-05-10T02:48:51.239Z,10.32
2023-05-10T02:51:20.068Z,10.25
2023-05-10T02:53:47.816Z,10.20
2023-05-10T02:56:36.121Z,10.24
2023-05-10T02:59:02.859Z,10.20
2023-05-10T03:01:30.502Z,10.23
2023-05-10T03:03:57.335Z,10.16
2023-05-10T03:06:23.973Z,10.24
2023-05-10T03:08:50.592Z,10.24
2023-05-10T03:11:29.986Z,10.15
2023-05-10T03:14:18.482Z,10.16
2023-05-10T03:16:53.869Z,10.38
2023-05-10T03:19:55.673Z,10.39
2023-05-10T03:22:39.368Z,10.35
2023-05-10T03:25:07.984Z,10.32
2023-05-10T03:27:35.716Z,10.38
2023-05-10T03:30:03.627Z,10.32
2023-05-10T03:32:31.324Z,10.35
2023-05-10T03:34:57.958Z,10.36
2023-05-10T03:44:58.194Z,10.71
2023-05-10T03:47:24.851Z,10.81
2023-05-10T03:49:51.591Z,10.82
2023-05-10T03:52:18.183Z,10.89
2023-05-10T03:54:44.850Z,10.87
2023-05-10T03:57:11.518Z,10.83
2023-05-10T03:59:38.184Z,10.88
2023-05-10T04:02:04.834Z,10.78
2023-05-10T04:04:31.722Z,10.85
2023-05-10T04:06:58.454Z,10.76
2023-05-10T04:09:25.151Z,10.89
2023-05-10T04:11:52.219Z,10.85
2023-05-10T04:14:18.814Z,10.78
2023-05-10T04:16:45.867Z,10.74
2023-05-10T04:19:12.757Z,10.73
2023-05-10T04:21:39.309Z,10.79
2023-05-10T04:24:06.154Z,10.93
2023-05-10T04:26:32.763Z,10.80
2023-05-10T04:28:59.340Z,10.72
2023-05-10T04:31:26.021Z,10.80
2023-05-10T04:33:52.656Z,10.73
2023-05-10T04:36:19.317Z,10.86
2023-05-10T04:38:45.898Z,10.87
2023-05-10T04:41:12.700Z,10.94
2023-05-10T04:43:39.793Z,10.95
2023-05-10T04:46:06.909Z,10.92
2023-05-10T04:48:33.622Z,10.84
2023-05-10T04:51:00.293Z,10.80
2023-05-10T04:53:26.981Z,10.93
2023-05-10T04:55:53.632Z,10.94
2023-05-10T04:58:20.205Z,11.03
2023-05-10T05:00:46.869Z,11.01
2023-05-10T05:03:13.519Z,11.00
2023-05-10T05:05:40.169Z,10.97
2023-05-10T05:08:06.898Z,10.85
2023-05-10T05:10:33.545Z,10.87
2023-05-10T05:13:00.274Z,10.95
2023-05-10T05:15:27.091Z,10.92
2023-05-10T05:17:53.739Z,10.96
2023-05-10T05:20:20.365Z,10.93
2023-05-10T05:22:46.970Z,11.07
2023-05-10T05:25:13.850Z,11.16
2023-05-10T05:27:40.471Z,11.07
2023-05-10T05:30:07.734Z,11.20
2023-05-10T05:32:34.308Z,11.29
2023-05-10T05:35:01.041Z,11.37
2023-05-10T05:37:27.618Z,11.43
2023-05-10T05:39:55.979Z,11.34
2023-05-10T05:42:22.600Z,11.22
2023-05-10T05:44:49.289Z,11.21
2023-05-10T05:47:15.988Z,11.18
2023-05-10T05:49:42.624Z,11.43
2023-05-10T05:52:09.264Z,11.54
2023-05-10T05:54:36.009Z,11.54
2023-05-10T05:57:02.715Z,11.42
2023-05-10T05:59:29.397Z,11.48
2023-05-10T06:01:56.147Z,11.51
2023-05-10T06:04:22.937Z,11.55
2023-05-10T06:06:49.693Z,11.61
2023-05-10T06:09:16.896Z,11.51
2023-05-10T06:11:43.963Z,11.59
2023-05-10T06:14:11.610Z,11.67
2023-05-10T06:16:38.304Z,11.66
2023-05-10T06:19:05.167Z,11.92
2023-05-10T06:21:31.828Z,11.96
2023-05-10T06:23:58.489Z,12.11
2023-05-10T06:26:25.186Z,12.30
2023-05-10T06:28:51.855Z,12.32
2023-05-10T06:31:18.868Z,12.35
2023-05-10T06:33:45.774Z,12.31
2023-05-10T06:36:12.425Z,12.28
2023-05-10T06:38:39.140Z,12.48
2023-05-10T06:41:05.786Z,12.61
2023-05-10T06:43:32.706Z,12.83
2023-05-10T06:45:59.483Z,13.13
2023-05-10T06:48:26.213Z,13.22
2023-05-10T06:50:52.965Z,13.33
2023-05-10T06:53:19.668Z,13.28
2023-05-10T06:55:46.600Z,13.33
2023-05-10T06:58:29.063Z,13.24
2023-05-10T07:00:55.698Z,13.00
2023-05-10T07:03:22.334Z,12.80
2023-05-10T07:05:49.112Z,12.63
2023-05-10T07:08:15.864Z,12.58
2023-05-10T07:10:42.503Z,12.34
2023-05-10T07:13:09.223Z,12.28
2023-05-10T07:15:35.993Z,12.36
2023-05-10T07:18:02.788Z,12.45
2023-05-10T07:20:29.515Z,12.46
2023-05-10T07:22:56.176Z,12.51
2023-05-10T07:25:22.856Z,12.52
2023-05-10T07:27:49.721Z,12.50
2023-05-10T07:30:16.455Z,12.44
2023-05-10T07:32:43.352Z,12.37
2023-05-10T07:35:10.011Z,12.29
2023-05-10T07:37:37.064Z,12.28
2023-05-10T07:40:03.803Z,12.19
2023-05-10T07:42:30.493Z,12.15
2023-05-10T07:44:57.201Z,12.05
2023-05-10T07:47:24.537Z,11.95
2023-05-10T07:49:51.343Z,12.04
2023-05-10T07:52:18.070Z,12.10
2023-05-10T07:54:45.637Z,12.07
2023-05-10T07:57:12.300Z,12.47
2023-05-10T07:59:38.922Z,12.65
2023-05-10T08:02:05.638Z,12.69
2023-05-10T08:04:32.295Z,12.86
2023-05-10T08:06:58.882Z,13.29
2023-05-10T08:09:25.665Z,13.92
2023-05-10T08:12:01.991Z,14.11
2023-05-10T08:14:31.624Z,14.19
2023-05-10T08:16:58.256Z,14.31
2023-05-10T08:19:25.116Z,14.89
2023-05-10T08:21:52.081Z,15.10
2023-05-10T08:24:18.759Z,15.00
2023-05-10T08:26:45.409Z,15.04
2023-05-10T08:29:12.089Z,15.07
2023-05-10T08:31:38.742Z,15.13
2023-05-10T08:34:05.474Z,15.21
2023-05-10T08:36:33.163Z,15.43
2023-05-10T08:38:59.893Z,15.71
2023-05-10T08:41:29.435Z,15.99
2023-05-10T08:43:56.437Z,16.28
2023-05-10T08:46:24.513Z,16.10
2023-05-10T08:48:52.815Z,16.00
2023-05-10T08:51:22.300Z,15.97
2023-05-10T08:53:49.252Z,16.09
2023-05-10T08:56:17.014Z,16.34
2023-05-10T08:58:44.043Z,16.76
2023-05-10T09:01:11.109Z,16.83
2023-05-10T09:03:40.346Z,16.78
2023-05-10T09:06:08.130Z,16.63
2023-05-10T09:08:34.953Z,16.91
2023-05-10T09:11:02.586Z,17.47
2023-05-10T09:13:29.941Z,17.47
2023-05-10T09:15:58.786Z,17.22
2023-05-10T09:18:28.892Z,17.03
2023-05-10T09:20:55.917Z,17.09
2023-05-10T09:23:22.673Z,16.98
2023-05-10T09:25:49.752Z,16.77
2023-05-10T09:28:16.616Z,16.54
2023-05-10T09:30:44.057Z,16.43
2023-05-10T09:33:11.161Z,16.36
2023-05-10T09:35:40.667Z,16.66
2023-05-10T09:38:07.738Z,17.14
2023-05-10T09:40:34.753Z,17.47
2023-05-10T09:43:10.192Z,17.41
2023-05-10T09:45:38.843Z,17.40
2023-05-10T09:48:06.918Z,17.10
2023-05-10T09:50:35.506Z,16.90
2023-05-10T09:53:06.951Z,16.87
2023-05-10T09:55:49.319Z,17.15
2023-05-10T09:58:17.106Z,17.39
2023-05-10T10:00:46.131Z,18.57
2023-05-10T10:03:26.541Z,19.55
2023-05-10T10:05:57.425Z,19.75
2023-05-10T10:08:25.716Z,19.61
2023-05-10T10:10:53.161Z,19.33
2023-05-10T10:13:28.050Z,19.21
2023-05-10T10:15:59.941Z,18.87
2023-05-10T10:18:28.541Z,18.96
2023-05-10T10:20:59.019Z,20.77
2023-05-10T10:23:28.932Z,21.60
2023-05-10T10:26:00.782Z,20.85
2023-05-10T10:28:53.044Z,20.07
2023-05-10T10:31:29.210Z,20.00
2023-05-10T10:34:08.286Z,20.06
2023-05-10T10:36:50.013Z,20.05
2023-05-10T10:39:17.309Z,19.79
2023-05-10T10:41:55.626Z,19.58
2023-05-10T10:44:31.970Z,19.14
2023-05-10T10:47:10.373Z,18.80
2023-05-10T10:49:45.034Z,18.85
2023-05-10T10:52:31.195Z,19.30
2023-05-10T10:55:26.150Z,19.73
2023-05-10T10:58:01.989Z,20.02
2023-05-10T11:00:29.908Z,20.30
2023-05-10T11:03:24.575Z,21.31
2023-05-10T11:05:54.127Z,22.66
2023-05-10T11:08:28.922Z,24.41
2023-05-10T11:11:29.191Z,25.41
2023-05-10T11:14:07.949Z,27.63
2023-05-10T11:16:44.937Z,28.46
2023-05-10T11:19:13.287Z,26.90
2023-05-10T11:21:52.982Z,23.83
2023-05-10T11:24:21.505Z,22.63
2023-05-10T11:26:51.264Z,21.30
2023-05-10T11:29:18.044Z,20.40
2023-05-10T11:31:46.455Z,19.79
2023-05-10T11:34:17.768Z,18.88
2023-05-10T11:36:44.453Z,18.61
2023-05-10T11:39:12.556Z,18.42
2023-05-10T11:41:42.333Z,17.99
2023-05-10T11:44:10.293Z,17.59
2023-05-10T11:46:37.896Z,17.38
2023-05-10T11:49:08.022Z,17.25
2023-05-10T11:51:36.897Z,17.54
2023-05-10T11:54:07.658Z,17.39
2023-05-10T11:56:34.482Z,17.42
2023-05-10T11:59:02.938Z,17.40
2023-05-10T12:01:29.842Z,17.67
2023-05-10T12:04:01.549Z,17.55
2023-05-10T12:06:30.482Z,17.87
2023-05-10T12:08:57.187Z,18.01
2023-05-10T12:11:28.398Z,18.07
2023-05-10T12:13:55.813Z,17.88
2023-05-10T12:16:28.011Z,17.90
2023-05-10T12:18:58.888Z,17.64
2023-05-10T12:21:26.308Z,17.20
2023-05-10T12:24:01.270Z,16.25
2023-05-10T12:26:29.248Z,16.16
2023-05-10T12:28:56.421Z,16.07
2023-05-10T12:31:23.145Z,16.39
2023-05-10T12:33:50.463Z,17.01
2023-05-10T12:36:17.773Z,17.85
2023-05-10T12:38:51.084Z,18.58
2023-05-10T12:41:18.970Z,18.88
2023-05-10T12:43:49.285Z,18.91
2023-05-10T12:46:18.266Z,18.61
2023-05-10T12:48:45.601Z,17.77
2023-05-10T12:51:20.738Z,17.66
2023-05-10T12:53:49.709Z,17.44
2023-05-10T12:56:16.518Z,17.16
2023-05-10T12:58:43.184Z,16.97
2023-05-10T13:01:09.953Z,16.81
2023-05-10T13:03:36.689Z,16.68
2023-05-10T13:06:03.307Z,16.73
2023-05-10T13:08:34.545Z,16.39
2023-05-10T13:11:02.154Z,16.30
2023-05-10T13:13:28.845Z,16.46
2023-05-10T13:15:55.675Z,16.74
2023-05-10T13:18:22.522Z,17.02
2023-05-10T13:20:50.671Z,17.45
2023-05-10T13:23:17.400Z,17.96
2023-05-10T13:25:44.037Z,18.49
2023-05-10T13:28:10.776Z,18.90
2023-05-10T13:30:37.526Z,18.77
2023-05-10T13:33:04.361Z,18.79
2023-05-10T13:35:31.245Z,19.03
2023-05-10T13:37:58.703Z,18.99
2023-05-10T13:40:25.368Z,19.00
2023-05-10T13:42:52.062Z,18.98
2023-05-10T13:45:18.956Z,18.85
2023-05-10T13:47:45.909Z,18.52
2023-05-10T13:50:12.604Z,18.04
2023-05-10T13:52:39.252Z,17.44
2023-05-10T13:55:06.202Z,17.18
2023-05-10T13:57:32.906Z,16.84
2023-05-10T13:59:59.578Z,16.55
2023-05-10T14:02:26.861Z,16.39
2023-05-10T14:04:53.603Z,16.14
2023-05-10T14:07:20.311Z,15.88
2023-05-10T14:09:47.073Z,16.05
2023-05-10T14:12:15.587Z,16.23
2023-05-10T14:14:42.454Z,16.58
2023-05-10T14:17:11.434Z,17.10
2023-05-10T14:19:40.085Z,17.24
2023-05-10T14:22:07.123Z,17.21
2023-05-10T14:24:33.717Z,17.13
2023-05-10T14:27:00.441Z,17.10
2023-05-10T14:29:27.170Z,17.16
2023-05-10T14:31:53.867Z,17.10
2023-05-10T14:34:20.968Z,17.31
2023-05-10T14:36:47.593Z,17.23
2023-05-10T14:39:14.409Z,16.90
2023-05-10T14:41:43.988Z,16.95
2023-05-10T14:44:11.537Z,16.95
2023-05-10T14:46:38.373Z,16.83
2023-05-10T14:49:05.287Z,17.35
2023-05-10T14:51:32.915Z,18.12
2023-05-10T14:53:59.990Z,18.30
2023-05-10T14:56:27.174Z,18.66
2023-05-10T14:58:53.859Z,19.05
2023-05-10T15:01:21.105Z,18.82
2023-05-10T15:03:48.453Z,18.80
2023-05-10T15:06:17.016Z,18.67
2023-05-10T15:08:43.715Z,18.65
2023-05-10T15:11:10.550Z,18.89
2023-05-10T15:13:37.124Z,19.16
2023-05-10T15:16:03.785Z,18.81
2023-05-10T15:18:30.525Z,18.65
2023-05-10T15:20:57.176Z,18.58
2023-05-10T15:23:23.968Z,18.58
2023-05-10T15:25:53.275Z,18.34
2023-05-10T15:28:19.895Z,18.18
2023-05-10T15:30:46.459Z,17.77
2023-05-10T15:33:13.053Z,17.33
2023-05-10T15:35:40.564Z,17.03
2023-05-10T15:38:07.219Z,16.82
2023-05-10T15:40:33.913Z,16.76
2023-05-10T15:43:00.534Z,16.63
2023-05-10T15:45:27.584Z,16.61
2023-05-10T15:47:54.322Z,16.62
2023-05-10T15:50:20.941Z,16.60
2023-05-10T15:52:47.591Z,16.41
2023-05-10T15:55:14.610Z,16.19
2023-05-10T15:57:42.530Z,16.01
2023-05-10T16:00:11.735Z,16.12
2023-05-10T16:02:39.156Z,15.97
2023-05-10T16:05:06.229Z,16.05
2023-05-10T16:07:32.823Z,16.01
2023-05-10T16:09:59.464Z,16.22
2023-05-10T16:12:26.314Z,16.10
2023-05-10T16:14:53.052Z,16.08
2023-05-10T16:17:20.453Z,16.16
2023-05-10T16:19:47.607Z,16.14
2023-05-10T16:22:15.043Z,16.05
2023-05-10T16:24:42.465Z,15.86
2023-05-10T16:27:09.148Z,15.64
2023-05-10T16:29:35.888Z,15.57
2023-05-10T16:32:02.572Z,15.43
2023-05-10T16:34:29.148Z,15.18
2023-05-10T16:36:55.785Z,15.20
2023-05-10T16:39:22.363Z,15.15
2023-05-10T16:41:49.013Z,14.93
2023-05-10T16:44:15.655Z,14.83
2023-05-10T16:46:42.439Z,14.75
2023-05-10T16:49:09.284Z,14.63
2023-05-10T16:51:35.982Z,14.50
2023-05-10T16:54:02.637Z,14.49
2023-05-10T16:56:29.495Z,14.34
2023-05-10T16:58:56.177Z,14.28
2023-05-10T17:01:24.951Z,14.22
2023-05-10T17:03:53.128Z,14.16
2023-05-10T17:06:19.880Z,14.07
2023-05-10T17:08:46.919Z,13.94
2023-05-10T17:11:13.914Z,13.89
2023-05-10T17:13:40.620Z,13.93
2023-05-10T17:16:08.396Z,13.81
2023-05-10T17:18:35.216Z,13.75
2023-05-10T17:21:01.906Z,13.64
2023-05-10T17:23:28.669Z,13.44
2023-05-10T17:25:55.447Z,13.29
2023-05-10T17:28:22.137Z,13.31
2023-05-10T17:30:56.212Z,13.17
2023-05-10T17:33:22.820Z,13.14
2023-05-10T17:35:49.752Z,13.10
2023-05-10T17:38:16.411Z,13.16
2023-05-10T17:40:43.130Z,13.07
2023-05-10T17:43:09.754Z,12.97
2023-05-10T17:45:36.489Z,12.88
2023-05-10T17:48:04.242Z,12.70
2023-05-10T17:50:32.734Z,12.55
2023-05-10T17:52:59.369Z,12.42
2023-05-10T17:55:27.165Z,12.35
2023-05-10T17:57:53.953Z,12.32
2023-05-10T18:00:20.818Z,12.32
2023-05-10T18:02:47.464Z,12.34
2023-05-10T18:05:14.429Z,12.32
2023-05-10T18:07:41.156Z,12.30
2023-05-10T18:10:08.196Z,12.35
2023-05-10T18:12:34.957Z,12.27
2023-05-10T18:15:01.645Z,12.24
2023-05-10T18:17:28.328Z,12.09
2023-05-10T18:19:55.201Z,12.17
2023-05-10T18:22:21.816Z,12.10
2023-05-10T18:24:48.429Z,12.04
2023-05-10T18:27:15.046Z,12.06
2023-05-10T18:29:42.389Z,12.12
2023-05-10T18:32:09.046Z,12.05
2023-05-10T18:34:35.923Z,12.08
2023-05-10T18:37:07.557Z,11.97
2023-05-10T18:39:34.670Z,11.95
2023-05-10T18:42:01.463Z,11.87
2023-05-10T18:44:29.088Z,11.81
2023-05-10T18:46:55.964Z,11.76
2023-05-10T18:49:22.860Z,11.74
2023-05-10T18:51:49.458Z,11.67
2023-05-10T18:54:16.273Z,11.64
2023-05-10T18:56:45.266Z,11.58
2023-05-10T18:59:12.527Z,11.47
2023-05-10T19:01:40.888Z,11.39
2023-05-10T19:04:08.916Z,11.45
2023-05-10T19:06:36.193Z,11.45
2023-05-10T19:09:03.219Z,11.40
2023-05-10T19:11:32.320Z,11.40
2023-05-10T19:13:59.066Z,11.33
2023-05-10T19:16:28.795Z,11.26
2023-05-10T19:18:56.957Z,11.29
2023-05-10T19:21:23.736Z,11.23
2023-05-10T19:23:50.424Z,11.18
2023-05-10T19:26:17.223Z,11.26
2023-05-10T19:28:44.154Z,11.23
2023-05-10T19:31:10.979Z,11.30
2023-05-10T19:33:37.740Z,11.26
2023-05-10T19:36:04.433Z,11.19
2023-05-10T19:38:31.159Z,11.19
2023-05-10T19:40:58.694Z,11.17
2023-05-10T19:43:32.138Z,11.14
2023-05-10T19:46:01.169Z,11.12
2023-05-10T19:48:28.154Z,11.02
2023-05-10T19:51:00.048Z,11.00
2023-05-10T19:53:27.173Z,11.01
2023-05-10T19:55:54.462Z,11.00
2023-05-10T19:58:21.140Z,11.00
2023-05-10T20:00:47.870Z,11.01
2023-05-10T20:03:15.445Z,11.02
2023-05-10T20:05:42.049Z,11.03
2023-05-10T20:08:08.762Z,10.97
2023-05-10T20:10:35.364Z,10.99
2023-05-10T20:13:02.045Z,10.89
2023-05-10T20:15:30.026Z,10.92
2023-05-10T20:17:56.724Z,10.97
2023-05-10T20:20:23.737Z,10.86
2023-05-10T20:22:50.810Z,10.86
2023-05-10T20:25:18.367Z,10.87
2023-05-10T20:27:45.521Z,10.84
2023-05-10T20:30:12.565Z,10.83
2023-05-10T20:32:39.376Z,10.82
2023-05-10T20:35:07.256Z,10.88
2023-05-10T20:37:34.020Z,10.95
2023-05-10T20:40:00.822Z,10.85
2023-05-10T20:42:27.431Z,10.88
2023-05-10T20:44:54.157Z,10.94
2023-05-10T20:47:21.993Z,10.95
2023-05-10T20:49:48.671Z,10.94
2023-05-10T20:52:15.525Z,10.95
2023-05-10T20:54:42.194Z,10.95
2023-05-10T20:57:09.149Z,10.90
2023-05-10T20:59:35.819Z,10.89
2023-05-10T21:02:02.521Z,10.81
2023-05-10T21:04:29.359Z,10.86
2023-05-10T21:06:57.036Z,10.92
2023-05-10T21:09:23.728Z,10.89
2023-05-10T21:11:50.867Z,10.89
2023-05-10T21:14:17.680Z,10.89
2023-05-10T21:16:44.394Z,10.86
2023-05-10T21:19:11.829Z,10.90
2023-05-10T21:21:38.543Z,10.80
2023-05-10T21:24:05.481Z,10.74
2023-05-10T21:26:32.276Z,10.81
2023-05-10T21:28:59.433Z,10.73
2023-05-10T21:31:26.120Z,10.63
2023-05-10T21:33:52.818Z,10.58
2023-05-10T21:36:19.595Z,10.54
2023-05-10T21:38:46.854Z,10.52
2023-05-10T21:41:13.555Z,10.37
2023-05-10T21:43:40.422Z,10.28
2023-05-10T21:46:07.480Z,10.30
2023-05-10T21:48:34.136Z,10.29
2023-05-10T21:51:01.770Z,10.26
2023-05-10T21:53:29.044Z,10.19
2023-05-10T21:55:56.324Z,10.19
2023-05-10T21:58:23.394Z,10.20
2023-05-10T22:00:50.075Z,10.15
2023-05-10T22:03:18.074Z,10.08
2023-05-10T22:05:44.990Z,9.98
2023-05-10T22:08:11.658Z,10.06
2023-05-10T22:10:38.369Z,10.06
2023-05-10T22:13:05.061Z,10.01
2023-05-10T22:15:34.148Z,9.97
2023-05-10T22:18:02.490Z,9.99
2023-05-10T22:20:29.263Z,9.94
2023-05-10T22:22:56.163Z,9.89
2023-05-10T22:25:22.944Z,9.80
2023-05-10T22:27:49.600Z,9.72
2023-05-10T22:30:17.043Z,9.76
2023-05-10T22:32:44.144Z,9.71
2023-05-10T22:35:10.836Z,9.76
2023-05-10T22:37:37.649Z,9.69
2023-05-10T22:40:04.759Z,9.71
2023-05-10T22:42:31.445Z,9.73
2023-05-10T22:44:58.913Z,9.66
2023-05-10T22:47:25.800Z,9.65
2023-05-10T22:49:52.559Z,9.75
2023-05-10T22:52:19.209Z,9.79
2023-05-10T22:54:45.861Z,9.89
2023-05-10T22:57:12.695Z,9.90
2023-05-10T22:59:39.457Z,9.96
2023-05-10T23:02:06.185Z,9.96
2023-05-10T23:04:32.983Z,9.99
2023-05-10T23:06:59.660Z,10.19
2023-05-10T23:09:26.314Z,10.20
2023-05-10T23:11:52.902Z,10.21
2023-05-10T23:14:19.658Z,10.22
2023-05-10T23:16:46.443Z,10.15
2023-05-10T23:19:13.346Z,10.15
2023-05-10T23:21:39.969Z,10.25
2023-05-10T23:24:08.652Z,10.21
2023-05-10T23:26:35.446Z,10.12
2023-05-10T23:29:02.486Z,10.11
2023-05-10T23:31:29.199Z,10.12
2023-05-10T23:33:56.096Z,10.06
2023-05-10T23:36:22.914Z,10.01
2023-05-10T23:38:49.513Z,10.01
2023-05-10T23:41:16.134Z,9.99
2023-05-10T23:43:42.858Z,10.14
2023-05-10T23:46:14.769Z,10.16
2023-05-10T23:48:41.577Z,10.20
2023-05-10T23:51:08.408Z,10.19
2023-05-10T23:53:35.114Z,10.02
2023-05-10T23:56:01.784Z,10.05
2023-05-10T23:58:28.486Z,10.09
